createdAt,value
2018-01-21T00:00:24.428Z,25.48
2018-01-21T00:02:53.568Z,24.17
2018-01-21T00:05:22.699Z,24.83
2018-01-21T00:07:51.905Z,26.05
2018-01-21T00:10:21.009Z,25.35
2018-01-21T00:12:50.129Z,25.55
2018-01-21T00:15:20.087Z,23.50
2018-01-21T00:17:49.321Z,26.08
2018-01-21T00:20:18.454Z,21.62
2018-01-21T00:22:48.395Z,26.12
2018-01-21T00:25:17.591Z,23.05
2018-01-21T00:27:47.584Z,21.80
2018-01-21T00:30:16.921Z,25.60
2018-01-21T00:32:46.108Z,23.20
2018-01-21T00:35:15.504Z,22.65
2018-01-21T00:37:44.936Z,23.55
2018-01-21T00:40:14.165Z,23.35
2018-01-21T00:42:43.409Z,25.33
2018-01-21T00:45:12.706Z,22.62
2018-01-21T00:47:42.041Z,22.00
2018-01-21T00:50:11.200Z,22.92
2018-01-21T00:52:40.408Z,22.62
2018-01-21T00:55:09.562Z,22.83
2018-01-21T00:57:39.519Z,21.33
2018-01-21T01:00:08.771Z,25.50
2018-01-21T01:02:38.006Z,25.27
2018-01-21T01:05:08.053Z,23.17
2018-01-21T01:07:37.441Z,24.20
2018-01-21T01:10:06.562Z,25.77
2018-01-21T01:12:36.508Z,27.37
2018-01-21T01:15:05.696Z,24.83
2018-01-21T01:17:35.576Z,25.10
2018-01-21T01:20:04.753Z,27.77
2018-01-21T01:22:33.959Z,24.52
2018-01-21T01:25:03.069Z,27.30
2018-01-21T01:27:33.006Z,23.80
2018-01-21T01:30:02.372Z,26.12
2018-01-21T01:32:33.365Z,26.00
2018-01-21T01:35:03.343Z,26.75
2018-01-21T01:37:34.084Z,23.42
2018-01-21T01:40:03.252Z,28.20
2018-01-21T01:42:33.185Z,26.48
2018-01-21T01:45:02.284Z,23.62
2018-01-21T01:47:32.250Z,26.98
2018-01-21T01:50:01.612Z,25.73
2018-01-21T01:52:30.733Z,25.30
2018-01-21T01:55:00.622Z,25.45
2018-01-21T01:57:29.935Z,21.92
2018-01-21T01:59:59.053Z,24.87
2018-01-21T02:02:28.223Z,26.80
2018-01-21T02:04:57.382Z,26.40
2018-01-21T02:07:26.500Z,27.67
2018-01-21T02:09:55.654Z,27.70
2018-01-21T02:12:24.813Z,26.02
2018-01-21T02:14:54.016Z,26.95
2018-01-21T02:17:23.943Z,26.55
2018-01-21T02:19:53.857Z,29.67
2018-01-21T02:22:22.955Z,26.73
2018-01-21T02:24:52.169Z,28.40
2018-01-21T02:27:21.309Z,28.27
2018-01-21T02:29:50.443Z,29.17
2018-01-21T02:32:20.457Z,26.25
2018-01-21T02:34:49.672Z,26.73
2018-01-21T02:37:19.600Z,27.30
2018-01-21T02:39:49.545Z,26.98
2018-01-21T02:42:19.498Z,27.77
2018-01-21T02:44:48.624Z,28.98
2018-01-21T02:47:17.818Z,27.87
2018-01-21T02:49:46.962Z,29.65
2018-01-21T02:52:16.212Z,30.17
2018-01-21T02:54:45.385Z,28.65
2018-01-21T02:57:14.601Z,27.15
2018-01-21T02:59:43.802Z,28.42
2018-01-21T03:02:12.973Z,28.65
2018-01-21T03:04:42.178Z,27.27
2018-01-21T03:07:11.377Z,26.83
2018-01-21T03:09:40.532Z,26.33
2018-01-21T03:12:09.833Z,28.83
2018-01-21T03:14:39.060Z,28.77
2018-01-21T03:17:08.185Z,27.45
2018-01-21T03:19:37.456Z,30.15
2018-01-21T03:22:06.596Z,27.30
2018-01-21T03:24:35.803Z,27.15
2018-01-21T03:27:05.231Z,27.05
2018-01-21T03:29:34.351Z,28.38
2018-01-21T03:32:04.253Z,27.15
2018-01-21T03:34:33.501Z,26.75
2018-01-21T03:37:03.399Z,26.17
2018-01-21T03:39:32.596Z,28.00
2018-01-21T03:42:01.813Z,29.05
2018-01-21T03:44:31.815Z,26.05
2018-01-21T03:47:00.982Z,26.90
2018-01-21T03:49:30.886Z,26.75
2018-01-21T03:52:00.069Z,27.48
2018-01-21T03:54:29.178Z,28.12
2018-01-21T03:56:59.270Z,28.90
2018-01-21T03:59:29.164Z,27.52
2018-01-21T04:01:59.598Z,27.65
2018-01-21T04:04:28.769Z,28.02
2018-01-21T04:06:57.909Z,26.92
2018-01-21T04:09:27.413Z,27.00
2018-01-21T04:11:56.638Z,29.15
2018-01-21T04:14:25.799Z,29.95
2018-01-21T04:16:56.364Z,26.48
2018-01-21T04:19:25.660Z,30.10
2018-01-21T04:21:55.814Z,29.05
2018-01-21T04:24:25.000Z,29.20
2018-01-21T04:26:54.142Z,28.75
2018-01-21T04:29:23.316Z,29.25
2018-01-21T04:31:52.489Z,30.10
2018-01-21T04:34:21.585Z,29.33
2018-01-21T04:36:50.685Z,29.65
2018-01-21T04:39:19.908Z,29.75
2018-01-21T04:41:49.056Z,29.83
2018-01-21T04:44:18.153Z,32.80
2018-01-21T04:46:47.334Z,29.50
2018-01-21T04:49:16.489Z,30.67
2018-01-21T04:51:45.666Z,27.40
2018-01-21T04:54:14.887Z,28.77
2018-01-21T04:56:44.806Z,28.30
2018-01-21T04:59:14.031Z,28.80
2018-01-21T05:01:43.245Z,27.50
2018-01-21T05:04:12.411Z,30.30
2018-01-21T05:06:41.618Z,30.05
2018-01-21T05:09:11.035Z,27.65
2018-01-21T05:11:40.149Z,29.12
2018-01-21T05:14:09.317Z,31.40
2018-01-21T05:16:39.518Z,29.33
2018-01-21T05:19:08.959Z,29.90
2018-01-21T05:21:38.925Z,27.40
2018-01-21T05:24:08.273Z,28.12
2018-01-21T05:26:37.442Z,27.52
2018-01-21T05:29:06.569Z,28.67
2018-01-21T05:31:35.726Z,25.90
2018-01-21T05:34:04.893Z,27.08
2018-01-21T05:36:34.105Z,27.15
2018-01-21T05:39:03.572Z,28.00
2018-01-21T05:41:32.689Z,26.37
2018-01-21T05:44:02.585Z,26.52
2018-01-21T05:46:32.033Z,27.20
2018-01-21T05:49:01.967Z,26.85
2018-01-21T05:51:31.901Z,26.58
2018-01-21T05:54:02.009Z,23.73
2018-01-21T05:56:31.132Z,23.30
2018-01-21T05:59:01.026Z,24.02
2018-01-21T06:01:30.185Z,20.88
2018-01-21T06:03:59.283Z,23.60
2018-01-21T06:06:28.983Z,22.80
2018-01-21T06:08:58.305Z,22.98
2018-01-21T06:11:27.442Z,24.63
2018-01-21T06:13:56.662Z,23.95
2018-01-21T06:16:25.833Z,23.25
2018-01-21T06:18:54.973Z,23.27
2018-01-21T06:21:24.150Z,24.80
2018-01-21T06:23:53.283Z,23.30
2018-01-21T06:26:23.220Z,23.23
2018-01-21T06:28:52.357Z,21.85
2018-01-21T06:31:21.509Z,19.87
2018-01-21T06:33:50.641Z,20.50
2018-01-21T06:36:20.617Z,21.40
2018-01-21T06:38:50.177Z,22.00
2018-01-21T06:41:19.295Z,22.62
2018-01-21T06:43:49.212Z,23.27
2018-01-21T06:46:18.662Z,21.05
2018-01-21T06:48:47.859Z,24.25
2018-01-21T06:51:17.052Z,22.45
2018-01-21T06:53:46.539Z,22.98
2018-01-21T06:56:16.532Z,21.35
2018-01-21T06:58:45.763Z,24.55
2018-01-21T07:01:15.694Z,22.90
2018-01-21T07:03:45.816Z,24.42
2018-01-21T07:06:14.996Z,23.08
2018-01-21T07:08:44.474Z,22.60
2018-01-21T07:11:13.655Z,21.40
2018-01-21T07:13:42.806Z,23.02
2018-01-21T07:16:12.000Z,23.52
2018-01-21T07:18:41.933Z,22.73
2018-01-21T07:21:11.879Z,27.13
2018-01-21T07:23:41.197Z,26.85
2018-01-21T07:26:10.337Z,26.30
2018-01-21T07:28:39.492Z,26.65
2018-01-21T07:31:09.002Z,24.65
2018-01-21T07:33:38.193Z,26.55
2018-01-21T07:36:07.491Z,26.48
2018-01-21T07:38:36.875Z,34.05
2018-01-21T07:41:06.003Z,34.58
2018-01-21T07:43:35.141Z,26.70
2018-01-21T07:46:04.297Z,30.88
2018-01-21T07:48:33.434Z,27.42
2018-01-21T07:51:02.566Z,28.67
2018-01-21T07:53:31.782Z,30.40
2018-01-21T07:56:00.918Z,28.70
2018-01-21T07:58:30.059Z,29.37
2018-01-21T08:00:59.300Z,27.83
2018-01-21T08:03:28.416Z,27.95
2018-01-21T08:05:57.652Z,31.20
2018-01-21T08:08:28.341Z,29.08
2018-01-21T08:10:57.690Z,28.52
2018-01-21T08:13:26.833Z,27.25
2018-01-21T08:15:55.982Z,31.05
2018-01-21T08:18:25.090Z,28.90
2018-01-21T08:20:57.866Z,32.38
2018-01-21T08:23:27.161Z,39.15
2018-01-21T08:25:57.193Z,23.62
2018-01-21T08:28:26.730Z,20.98
2018-01-21T08:30:56.643Z,18.25
2018-01-21T08:33:28.334Z,18.02
2018-01-21T08:36:04.827Z,20.70
2018-01-21T08:38:39.562Z,19.75
2018-01-21T08:41:15.816Z,21.90
2018-01-21T08:43:44.981Z,24.27
2018-01-21T08:46:14.141Z,26.25
2018-01-21T08:48:44.206Z,26.10
2018-01-21T08:51:13.701Z,27.42
2018-01-21T08:53:42.890Z,22.02
2018-01-21T08:56:12.107Z,24.80
2018-01-21T08:58:41.527Z,22.35
2018-01-21T09:01:11.612Z,24.10
2018-01-21T09:03:40.987Z,23.70
2018-01-21T09:06:10.229Z,24.70
2018-01-21T09:08:39.441Z,22.27
2018-01-21T09:11:08.764Z,22.50
2018-01-21T09:13:38.209Z,20.73
2018-01-21T09:16:08.198Z,23.12
2018-01-21T09:18:37.386Z,23.75
2018-01-21T09:21:07.917Z,26.98
2018-01-21T09:23:37.082Z,21.15
2018-01-21T09:26:06.261Z,27.95
2018-01-21T09:28:36.637Z,22.83
2018-01-21T09:31:06.834Z,21.52
2018-01-21T09:33:35.983Z,24.12
2018-01-21T09:36:05.146Z,21.75
2018-01-21T09:38:34.312Z,21.20
2018-01-21T09:41:03.439Z,19.05
2018-01-21T09:43:33.049Z,21.17
2018-01-21T09:46:02.995Z,25.70
2018-01-21T09:48:32.969Z,30.80
2018-01-21T09:51:02.340Z,25.40
2018-01-21T09:53:32.445Z,27.75
2018-01-21T09:56:01.590Z,26.40
2018-01-21T09:58:30.979Z,24.67
2018-01-21T10:01:00.252Z,25.40
2018-01-21T10:03:29.480Z,25.00
2018-01-21T10:05:58.810Z,23.73
2018-01-21T10:08:27.934Z,18.85
2018-01-21T10:10:57.044Z,18.50
2018-01-21T10:13:27.149Z,16.65
2018-01-21T10:15:56.390Z,16.27
2018-01-21T10:18:26.322Z,13.93
2018-01-21T10:20:55.479Z,13.98
2018-01-21T10:23:24.629Z,12.98
2018-01-21T10:25:54.545Z,16.00
2018-01-21T10:28:23.730Z,14.75
2018-01-21T10:30:52.870Z,15.25
2018-01-21T10:33:22.010Z,14.43
2018-01-21T10:35:51.306Z,14.20
2018-01-21T10:38:20.736Z,13.55
2018-01-21T10:40:50.696Z,14.85
2018-01-21T10:43:20.145Z,15.50
2018-01-21T10:45:49.326Z,18.12
2018-01-21T10:48:18.618Z,16.73
2018-01-21T10:50:47.942Z,16.15
2018-01-21T10:53:17.223Z,12.93
2018-01-21T10:55:49.214Z,15.15
2018-01-21T10:58:18.407Z,14.10
2018-01-21T11:00:54.018Z,16.05
2018-01-21T11:03:23.142Z,15.20
2018-01-21T11:05:52.423Z,14.30
2018-01-21T11:08:21.746Z,14.50
2018-01-21T11:10:50.964Z,14.57
2018-01-21T11:13:20.239Z,14.18
2018-01-21T11:15:49.469Z,13.52
2018-01-21T11:18:18.742Z,12.52
2018-01-21T11:20:48.789Z,12.40
2018-01-21T11:23:18.181Z,12.18
2018-01-21T11:25:48.184Z,12.13
2018-01-21T11:28:17.506Z,14.00
2018-01-21T11:30:46.869Z,13.55
2018-01-21T11:33:16.137Z,14.02
2018-01-21T11:35:45.378Z,12.65
2018-01-21T11:38:14.786Z,12.90
2018-01-21T11:40:44.114Z,10.82
2018-01-21T11:43:13.290Z,11.93
2018-01-21T11:45:42.643Z,11.12
2018-01-21T11:48:11.880Z,12.27
2018-01-21T11:50:41.478Z,11.68
2018-01-21T11:53:10.786Z,14.10
2018-01-21T11:55:40.097Z,11.35
2018-01-21T11:58:09.452Z,16.08
2018-01-21T12:00:39.184Z,16.48
2018-01-21T12:03:09.239Z,15.50
2018-01-21T12:05:38.742Z,15.35
2018-01-21T12:08:08.299Z,15.05
2018-01-21T12:10:37.530Z,15.52
2018-01-21T12:13:06.743Z,14.95
2018-01-21T12:15:36.042Z,14.10
2018-01-21T12:18:05.213Z,13.77
2018-01-21T12:20:34.398Z,16.73
2018-01-21T12:23:03.590Z,15.38
2018-01-21T12:25:32.790Z,13.43
2018-01-21T12:28:01.933Z,12.68
2018-01-21T12:30:31.149Z,11.70
2018-01-21T12:33:00.395Z,12.60
2018-01-21T12:35:30.346Z,11.82
2018-01-21T12:37:59.510Z,14.98
2018-01-21T12:40:29.505Z,15.55
2018-01-21T12:42:58.903Z,14.45
2018-01-21T12:45:28.363Z,14.20
2018-01-21T12:47:57.759Z,15.90
2018-01-21T12:50:26.932Z,15.55
2018-01-21T12:52:56.998Z,14.40
2018-01-21T12:55:26.194Z,16.00
2018-01-21T12:57:55.345Z,16.80
2018-01-21T13:00:24.674Z,15.70
2018-01-21T13:02:54.037Z,14.70
2018-01-21T13:05:23.384Z,15.02
2018-01-21T13:07:52.551Z,15.20
2018-01-21T13:10:21.844Z,13.77
2018-01-21T13:12:51.090Z,14.70
2018-01-21T13:15:20.831Z,15.88
2018-01-21T13:17:50.135Z,16.87
2018-01-21T13:20:19.328Z,14.00
2018-01-21T13:22:48.944Z,15.27
2018-01-21T13:25:18.196Z,14.55
2018-01-21T13:27:47.457Z,15.02
2018-01-21T13:30:17.495Z,14.93
2018-01-21T13:32:46.800Z,15.48
2018-01-21T13:35:16.081Z,15.80
2018-01-21T13:37:45.581Z,15.15
2018-01-21T13:40:14.918Z,18.05
2018-01-21T13:42:44.284Z,14.50
2018-01-21T13:45:13.726Z,16.23
2018-01-21T13:47:43.993Z,16.10
2018-01-21T13:50:14.032Z,18.77
2018-01-21T13:52:43.452Z,19.65
2018-01-21T13:55:14.764Z,18.23
2018-01-21T13:57:44.217Z,21.80
2018-01-21T14:00:14.377Z,20.17
2018-01-21T14:02:43.978Z,20.33
2018-01-21T14:05:13.259Z,19.55
2018-01-21T14:07:43.383Z,19.58
2018-01-21T14:10:14.216Z,18.27
2018-01-21T14:12:43.868Z,16.20
2018-01-21T14:15:13.273Z,16.27
2018-01-21T14:17:42.910Z,18.87
2018-01-21T14:20:12.334Z,17.55
2018-01-21T14:22:41.566Z,16.00
2018-01-21T14:25:12.220Z,15.57
2018-01-21T14:27:41.397Z,15.27
2018-01-21T14:30:10.734Z,15.90
2018-01-21T14:32:40.469Z,18.42
2018-01-21T14:35:09.754Z,18.52
2018-01-21T14:37:39.108Z,17.95
2018-01-21T14:40:08.581Z,19.83
2018-01-21T14:42:37.881Z,15.88
2018-01-21T14:45:08.750Z,16.62
2018-01-21T14:47:38.161Z,18.17
2018-01-21T14:50:08.103Z,20.20
2018-01-21T14:52:38.450Z,18.35
2018-01-21T14:55:08.127Z,16.50
2018-01-21T14:57:37.401Z,17.25
2018-01-21T15:00:06.594Z,14.77
2018-01-21T15:02:35.866Z,14.63
2018-01-21T15:05:06.093Z,13.98
2018-01-21T15:07:35.368Z,15.85
2018-01-21T15:10:05.537Z,17.23
2018-01-21T15:12:34.700Z,18.33
2018-01-21T15:15:03.827Z,17.95
2018-01-21T15:17:33.120Z,17.67
2018-01-21T15:20:03.174Z,17.95
2018-01-21T15:22:32.309Z,17.02
2018-01-21T15:25:01.625Z,15.40
2018-01-21T15:27:32.830Z,18.05
2018-01-21T15:30:03.573Z,18.08
2018-01-21T15:32:32.755Z,17.48
2018-01-21T15:35:01.995Z,18.30
2018-01-21T15:37:32.249Z,15.68
2018-01-21T15:40:01.422Z,14.93
2018-01-21T15:42:31.543Z,13.75
2018-01-21T15:55:16.482Z,71.30
2018-01-21T15:58:03.534Z,77.20
2018-01-21T16:06:38.026Z,11.93
2018-01-21T16:09:08.018Z,14.33
2018-01-21T16:11:36.503Z,15.67
2018-01-21T16:14:05.487Z,12.85
2018-01-21T16:16:33.922Z,15.55
2018-01-21T16:19:02.357Z,13.62
2018-01-21T16:21:30.903Z,13.48
2018-01-21T16:23:59.381Z,13.48
2018-01-21T16:26:27.823Z,14.38
2018-01-21T16:28:56.348Z,12.85
2018-01-21T16:31:24.800Z,13.23
2018-01-21T16:33:54.250Z,17.67
2018-01-21T16:36:27.520Z,14.15
2018-01-21T16:38:57.782Z,14.60
2018-01-21T16:41:26.224Z,15.35
2018-01-21T16:43:54.788Z,18.35
2018-01-21T16:46:23.504Z,19.00
2018-01-21T16:48:52.207Z,17.10
2018-01-21T16:51:20.865Z,18.75
2018-01-21T16:53:49.585Z,20.25
2018-01-21T16:56:18.299Z,15.68
2018-01-21T16:58:46.991Z,16.58
2018-01-21T17:01:15.475Z,15.77
2018-01-21T17:03:44.201Z,14.95
2018-01-21T17:06:12.643Z,16.83
2018-01-21T17:08:41.209Z,18.45
2018-01-21T17:11:10.055Z,16.52
2018-01-21T17:13:38.740Z,19.35
2018-01-21T17:16:08.413Z,17.98
2018-01-21T17:18:37.812Z,19.08
2018-01-21T17:21:06.528Z,17.83
2018-01-21T17:23:35.120Z,16.95
2018-01-21T17:26:04.379Z,16.80
2018-01-21T17:28:34.843Z,17.35
2018-01-21T17:31:03.321Z,14.85
2018-01-21T17:33:31.964Z,21.33
2018-01-21T17:36:00.461Z,16.60
2018-01-21T17:38:28.903Z,20.27
2018-01-21T17:41:00.672Z,19.70
2018-01-21T17:43:32.588Z,16.48
2018-01-21T17:46:01.319Z,15.07
2018-01-21T17:48:29.789Z,16.67
2018-01-21T17:50:58.409Z,14.60
2018-01-21T17:53:26.869Z,17.00
2018-01-21T17:55:55.419Z,15.65
2018-01-21T17:58:24.397Z,16.37
2018-01-21T18:00:52.951Z,17.83
2018-01-21T18:03:21.430Z,19.50
2018-01-21T18:05:49.907Z,18.15
2018-01-21T18:08:19.346Z,18.70
2018-01-21T18:10:48.788Z,19.25
2018-01-21T18:13:18.026Z,19.65
2018-01-21T18:15:47.495Z,18.27
2018-01-21T18:18:16.012Z,16.73
2018-01-21T18:20:44.610Z,16.08
2018-01-21T18:23:13.203Z,15.27
2018-01-21T18:25:41.842Z,15.30
2018-01-21T18:28:11.073Z,16.37
2018-01-21T18:30:39.610Z,16.27
2018-01-21T18:33:08.268Z,20.55
2018-01-21T18:35:36.863Z,19.42
2018-01-21T18:38:05.663Z,19.67
2018-01-21T18:40:35.101Z,22.15
2018-01-21T18:43:03.598Z,19.30
2018-01-21T18:45:32.066Z,18.98
2018-01-21T18:48:00.520Z,20.12
2018-01-21T18:50:29.193Z,22.02
2018-01-21T18:52:57.638Z,21.05
2018-01-21T18:55:26.693Z,21.65
2018-01-21T18:57:55.481Z,18.62
2018-01-21T19:00:24.107Z,18.65
2018-01-21T19:02:52.758Z,18.80
2018-01-21T19:05:29.705Z,16.48
2018-01-21T19:07:58.153Z,17.52
2018-01-21T19:10:26.590Z,16.77
2018-01-21T19:12:55.050Z,16.98
2018-01-21T19:15:23.632Z,19.80
2018-01-21T19:17:52.086Z,17.42
2018-01-21T19:20:20.657Z,17.42
2018-01-21T19:22:49.332Z,17.62
2018-01-21T19:25:17.819Z,18.17
2018-01-21T19:27:46.368Z,18.40
2018-01-21T19:30:14.980Z,18.37
2018-01-21T19:32:43.993Z,19.33
2018-01-21T19:35:12.786Z,18.15
2018-01-21T19:37:41.497Z,17.95
2018-01-21T19:40:10.463Z,18.23
2018-01-21T19:45:56.574Z,19.35
2018-01-21T19:48:25.051Z,19.58
2018-01-21T19:50:53.683Z,19.45
2018-01-21T19:53:22.363Z,21.30
2018-01-21T19:55:50.869Z,21.23
2018-01-21T19:58:19.382Z,20.08
2018-01-21T20:00:47.922Z,21.83
2018-01-21T20:03:16.576Z,21.65
2018-01-21T20:05:45.295Z,20.92
2018-01-21T20:08:13.938Z,19.48
2018-01-21T20:10:42.441Z,18.25
2018-01-21T20:13:15.901Z,19.17
2018-01-21T20:15:44.629Z,19.60
2018-01-21T20:18:13.164Z,17.27
2018-01-21T20:20:42.109Z,20.23
2018-01-21T20:23:10.678Z,16.02
2018-01-21T20:25:39.373Z,21.12
2018-01-21T20:28:07.942Z,21.30
2018-01-21T20:30:37.212Z,20.42
2018-01-21T20:33:05.662Z,18.90
2018-01-21T20:35:34.597Z,18.30
2018-01-21T20:38:03.093Z,16.10
2018-01-21T20:40:31.717Z,19.98
2018-01-21T20:43:00.291Z,19.25
2018-01-21T20:45:28.949Z,15.52
2018-01-21T20:47:57.420Z,19.17
2018-01-21T20:50:25.922Z,19.08
2018-01-21T20:52:54.590Z,17.67
2018-01-21T20:55:23.092Z,14.63
2018-01-21T20:57:55.010Z,17.33
2018-01-21T21:00:24.410Z,18.02
2018-01-21T21:02:54.174Z,18.35
2018-01-21T21:05:23.006Z,21.58
2018-01-21T21:07:51.686Z,27.20
2018-01-21T21:10:20.549Z,21.55
2018-01-21T21:12:49.774Z,20.73
2018-01-21T21:15:18.576Z,19.40
2018-01-21T21:17:48.808Z,19.00
2018-01-21T21:20:17.477Z,18.48
2018-01-21T21:22:46.080Z,22.65
2018-01-21T21:25:15.199Z,19.12
2018-01-21T21:27:43.837Z,16.80
2018-01-21T21:30:12.659Z,18.42
2018-01-21T21:32:41.436Z,17.95
2018-01-21T21:35:09.957Z,18.65
2018-01-21T21:37:39.710Z,17.40
2018-01-21T21:40:08.188Z,17.95
2018-01-21T21:42:37.202Z,19.42
2018-01-21T21:45:05.814Z,21.33
2018-01-21T21:47:37.183Z,16.95
2018-01-21T21:50:05.937Z,18.55
2018-01-21T21:52:34.630Z,19.87
2018-01-21T21:55:03.187Z,18.00
2018-01-21T21:57:32.244Z,16.37
2018-01-21T22:00:01.845Z,18.37
2018-01-21T22:02:30.360Z,17.23
2018-01-21T22:04:58.805Z,18.77
2018-01-21T22:07:27.617Z,20.33
2018-01-21T22:09:56.069Z,18.52
2018-01-21T22:12:24.533Z,20.90
2018-01-21T22:14:52.995Z,18.83
2018-01-21T22:17:21.477Z,18.77
2018-01-21T22:19:49.936Z,19.12
2018-01-21T22:22:18.490Z,18.20
2018-01-21T22:24:46.962Z,18.75
2018-01-21T22:27:15.393Z,19.90
2018-01-21T22:29:45.266Z,20.15
2018-01-21T22:32:13.870Z,18.00
2018-01-21T22:34:42.671Z,19.60
2018-01-21T22:37:11.801Z,19.90
2018-01-21T22:39:41.210Z,19.20
2018-01-21T22:42:09.736Z,19.87
2018-01-21T22:44:38.317Z,16.83
2018-01-21T22:47:06.798Z,17.02
2018-01-21T22:49:35.333Z,17.40
2018-01-21T22:52:04.517Z,16.00
2018-01-21T22:54:32.962Z,20.35
2018-01-21T22:57:01.466Z,17.37
2018-01-21T22:59:29.971Z,18.80
2018-01-21T23:01:58.476Z,18.80
2018-01-21T23:04:26.925Z,19.85
2018-01-21T23:06:55.484Z,19.17
2018-01-21T23:09:23.911Z,18.40
2018-01-21T23:11:52.397Z,15.90
2018-01-21T23:14:21.098Z,19.90
2018-01-21T23:16:49.586Z,18.60
2018-01-21T23:19:18.120Z,19.95
2018-01-21T23:21:47.054Z,17.67
2018-01-21T23:24:15.562Z,19.58
2018-01-21T23:26:44.361Z,19.65
2018-01-21T23:29:13.256Z,16.33
2018-01-21T23:31:41.919Z,20.33
2018-01-21T23:34:10.482Z,21.52
2018-01-21T23:36:39.228Z,19.50
2018-01-21T23:39:07.682Z,22.50
2018-01-21T23:41:36.801Z,18.70
2018-01-21T23:44:05.322Z,18.25
2018-01-21T23:46:33.761Z,18.33
2018-01-21T23:49:02.265Z,18.73
2018-01-21T23:51:36.422Z,17.15
2018-01-21T23:54:04.873Z,19.67
2018-01-21T23:56:33.392Z,19.65
2018-01-21T23:59:02.163Z,19.42
